Medical Springs, Oregon
Current Conditions -  °F | °C
As of 7:53 PM on Tuesday 21 Oct 2014 (Local Time) from KBKE Reporting Station
Clear Clear  
Wind Chill: 35°   Ceiling: Unl
Heat Index: 39°   Visibility: 10mi
Dew Point: 31°   Wind: 6mph
Humidity: 73%   Direction: 130°SE
Pressure: 30.03"   Gusts: NA
Location:  44.7595°N, 117.716°W
Report Text: KBKE 220253Z AUTO 13005KT 10SM CLR 04/M01 A3003 RMK AO2 SLP178 60000 T00391006 50005
Loading
Personal Weather Stations






























Interactive Weather Map
Tropical Storm Tracking
New forecast layout! Learn more

10-Day Weather Forecast

Advertisements
Track Severe Weather on mobile